createdAt,value
2019-05-25T00:01:47.466Z,9.57
2019-05-25T00:04:16.329Z,9.54
2019-05-25T00:06:45.453Z,9.63
2019-05-25T00:09:16.285Z,9.34
2019-05-25T00:11:45.331Z,9.34
2019-05-25T00:14:14.074Z,9.40
2019-05-25T00:16:42.780Z,9.40
2019-05-25T00:19:11.454Z,9.41
2019-05-25T00:21:40.123Z,9.25
2019-05-25T00:24:12.208Z,9.34
2019-05-25T00:26:39.347Z,9.37
2019-05-25T00:29:09.778Z,9.35
2019-05-25T00:31:39.133Z,9.06
2019-05-25T00:34:07.763Z,9.02
2019-05-25T00:36:36.444Z,9.05
2019-05-25T00:39:07.076Z,9.18
2019-05-25T00:41:35.763Z,9.16
2019-05-25T00:44:04.759Z,9.09
2019-05-25T00:46:35.080Z,9.15
2019-05-25T00:49:03.772Z,9.09
2019-05-25T00:51:32.456Z,8.94
2019-05-25T00:54:01.959Z,8.91
2019-05-25T00:56:30.938Z,8.93
2019-05-25T00:58:59.665Z,8.93
2019-05-25T01:01:28.329Z,8.99
2019-05-25T01:03:57.136Z,9.09
2019-05-25T01:06:25.911Z,8.90
2019-05-25T01:08:54.596Z,9.06
2019-05-25T01:11:23.382Z,8.99
2019-05-25T01:13:52.229Z,8.86
2019-05-25T01:16:20.912Z,8.85
2019-05-25T01:18:50.019Z,8.80
2019-05-25T01:21:18.841Z,8.67
2019-05-25T01:23:47.528Z,8.70
2019-05-25T01:26:16.338Z,8.77
2019-05-25T01:28:45.001Z,8.67
2019-05-25T01:31:13.690Z,8.73
2019-05-25T01:33:42.482Z,8.68
2019-05-25T01:36:11.167Z,8.72
2019-05-25T01:38:39.852Z,8.55
2019-05-25T01:41:08.541Z,8.64
2019-05-25T01:43:37.221Z,8.54
2019-05-25T01:46:06.014Z,8.52
2019-05-25T01:48:34.632Z,8.58
2019-05-25T01:51:03.289Z,8.52
2019-05-25T01:53:31.971Z,8.47
2019-05-25T01:56:00.671Z,8.40
2019-05-25T01:58:29.450Z,8.46
2019-05-25T02:01:00.192Z,8.46
2019-05-25T02:03:28.579Z,8.39
2019-05-25T02:05:57.375Z,8.35
2019-05-25T02:08:26.045Z,8.23
2019-05-25T02:10:54.822Z,8.19
2019-05-25T02:13:23.514Z,8.27
2019-05-25T02:15:52.243Z,8.17
2019-05-25T02:18:20.982Z,8.22
2019-05-25T02:20:49.686Z,8.21
2019-05-25T02:23:18.358Z,8.10
2019-05-25T02:25:47.155Z,8.08
2019-05-25T02:28:15.832Z,8.05
2019-05-25T02:30:44.517Z,8.00
2019-05-25T02:33:13.322Z,7.96
2019-05-25T02:35:42.106Z,8.04
2019-05-25T02:38:12.234Z,8.12
2019-05-25T02:40:40.848Z,7.98
2019-05-25T02:43:09.588Z,8.07
2019-05-25T02:45:38.278Z,7.95
2019-05-25T02:48:06.963Z,8.16
2019-05-25T02:50:35.642Z,7.84
2019-05-25T02:53:04.337Z,7.75
2019-05-25T02:55:34.993Z,7.85
2019-05-25T02:58:03.769Z,7.72
2019-05-25T03:00:34.184Z,7.71
2019-05-25T03:03:03.648Z,7.62
2019-05-25T03:05:34.025Z,7.61
2019-05-25T03:08:03.343Z,7.52
2019-05-25T03:10:32.003Z,7.36
2019-05-25T03:13:02.635Z,7.38
2019-05-25T03:15:31.323Z,7.37
2019-05-25T03:18:00.212Z,7.46
2019-05-25T03:20:28.885Z,7.56
2019-05-25T03:22:57.586Z,7.55
2019-05-25T03:25:26.271Z,7.47
2019-05-25T03:27:54.887Z,7.42
2019-05-25T03:30:37.688Z,7.35
2019-05-25T03:33:06.361Z,7.34
2019-05-25T03:35:35.250Z,7.42
2019-05-25T03:38:03.976Z,7.49
2019-05-25T03:40:32.732Z,7.36
2019-05-25T03:43:01.516Z,7.34
2019-05-25T03:45:30.409Z,7.37
2019-05-25T03:47:59.375Z,7.45
2019-05-25T03:50:28.097Z,7.50
2019-05-25T03:52:56.774Z,7.35
2019-05-25T03:55:26.955Z,7.43
2019-05-25T03:57:55.696Z,7.50
2019-05-25T04:00:35.938Z,7.37
2019-05-25T04:03:05.159Z,7.37
2019-05-25T04:05:33.837Z,7.37
2019-05-25T04:08:02.867Z,7.38
2019-05-25T04:10:31.741Z,7.37
2019-05-25T04:13:00.499Z,7.40
2019-05-25T04:15:29.312Z,7.44
2019-05-25T04:17:58.887Z,7.48
2019-05-25T04:20:27.683Z,7.55
2019-05-25T04:22:56.474Z,7.43
2019-05-25T04:25:25.263Z,7.39
2019-05-25T04:27:53.974Z,7.40
2019-05-25T04:30:24.289Z,7.47
2019-05-25T04:32:52.969Z,7.55
2019-05-25T04:35:21.776Z,7.67
2019-05-25T04:37:50.435Z,7.68
2019-05-25T04:40:19.126Z,7.52
2019-05-25T04:42:47.813Z,7.60
2019-05-25T04:45:16.800Z,7.65
2019-05-25T04:47:45.486Z,7.74
2019-05-25T04:50:14.542Z,7.99
2019-05-25T04:52:43.275Z,8.38
2019-05-25T04:55:12.264Z,8.70
2019-05-25T04:57:40.953Z,8.79
2019-05-25T05:00:10.291Z,9.21
2019-05-25T05:02:39.246Z,9.44
2019-05-25T05:05:08.254Z,9.81
2019-05-25T05:07:38.374Z,10.02
2019-05-25T05:10:07.889Z,10.19
2019-05-25T05:12:36.665Z,10.48
2019-05-25T05:15:07.089Z,10.80
2019-05-25T05:17:35.786Z,10.91
2019-05-25T05:20:06.641Z,11.16
2019-05-25T05:22:35.400Z,11.28
2019-05-25T05:25:05.332Z,11.11
2019-05-25T05:27:34.717Z,11.41
2019-05-25T05:30:03.405Z,11.89
2019-05-25T05:32:32.190Z,11.60
2019-05-25T05:35:00.870Z,11.99
2019-05-25T05:37:30.281Z,11.73
2019-05-25T05:39:59.177Z,12.16
2019-05-25T05:42:28.372Z,12.08
2019-05-25T05:44:57.471Z,11.67
2019-05-25T05:47:26.869Z,11.83
2019-05-25T05:49:55.552Z,12.29
2019-05-25T05:52:25.889Z,12.15
2019-05-25T05:54:55.383Z,12.78
2019-05-25T05:57:24.179Z,13.00
2019-05-25T05:59:52.979Z,13.37
2019-05-25T06:02:21.647Z,13.46
2019-05-25T06:04:50.446Z,13.76
2019-05-25T06:07:19.547Z,13.85
2019-05-25T06:09:48.180Z,13.76
2019-05-25T06:12:16.941Z,13.51
2019-05-25T06:14:45.591Z,13.06
2019-05-25T06:17:14.283Z,13.71
2019-05-25T06:19:42.970Z,13.05
2019-05-25T06:22:11.856Z,13.56
2019-05-25T06:24:40.654Z,14.16
2019-05-25T06:27:09.350Z,14.45
2019-05-25T06:29:38.123Z,14.59
2019-05-25T06:32:08.361Z,14.45
2019-05-25T06:34:36.974Z,14.36
2019-05-25T06:37:05.717Z,13.83
2019-05-25T06:39:34.501Z,13.47
2019-05-25T06:42:05.342Z,14.04
2019-05-25T06:44:34.440Z,14.09
2019-05-25T06:47:03.430Z,14.50
2019-05-25T06:49:32.152Z,14.83
2019-05-25T06:52:01.570Z,14.46
2019-05-25T06:54:30.410Z,14.97
2019-05-25T06:56:59.116Z,15.32
2019-05-25T06:59:27.784Z,14.97
2019-05-25T07:01:56.571Z,14.86
2019-05-25T07:04:25.396Z,14.69
2019-05-25T07:06:54.263Z,14.32
2019-05-25T07:09:22.940Z,14.79
2019-05-25T07:11:51.739Z,15.36
2019-05-25T07:14:20.434Z,16.05
2019-05-25T07:16:49.214Z,16.45
2019-05-25T07:19:17.831Z,16.99
2019-05-25T07:21:46.579Z,17.40
2019-05-25T07:24:15.365Z,17.45
2019-05-25T07:26:44.084Z,17.28
2019-05-25T07:29:12.684Z,17.23
2019-05-25T07:31:43.087Z,17.44
2019-05-25T07:34:14.974Z,17.46
2019-05-25T07:36:43.727Z,17.26
2019-05-25T07:39:12.418Z,17.27
2019-05-25T07:41:42.838Z,17.43
2019-05-25T07:44:11.620Z,17.67
2019-05-25T07:46:40.444Z,17.70
2019-05-25T07:49:09.464Z,18.32
2019-05-25T07:51:38.195Z,18.55
2019-05-25T07:54:06.883Z,18.09
2019-05-25T07:56:35.565Z,17.01
2019-05-25T07:59:04.835Z,16.66
2019-05-25T08:01:36.597Z,17.98
2019-05-25T08:04:05.519Z,18.04
2019-05-25T08:06:34.197Z,18.59
2019-05-25T08:09:02.990Z,18.65
2019-05-25T08:11:31.682Z,18.56
2019-05-25T08:14:00.458Z,18.30
2019-05-25T08:16:29.085Z,18.70
2019-05-25T08:18:57.863Z,18.55
2019-05-25T08:21:26.539Z,18.15
2019-05-25T08:23:55.310Z,19.06
2019-05-25T08:26:23.997Z,18.75
2019-05-25T08:28:52.785Z,19.16
2019-05-25T08:31:21.473Z,18.74
2019-05-25T08:33:50.269Z,19.20
2019-05-25T08:36:18.949Z,19.39
2019-05-25T08:38:48.921Z,19.71
2019-05-25T08:41:19.662Z,19.68
2019-05-25T08:43:48.078Z,19.80
2019-05-25T08:46:16.762Z,19.15
2019-05-25T08:48:45.656Z,19.30
2019-05-25T08:51:14.342Z,19.77
2019-05-25T08:53:46.459Z,19.83
2019-05-25T08:56:13.769Z,19.70
2019-05-25T08:58:48.394Z,19.85
2019-05-25T09:01:13.085Z,20.21
2019-05-25T09:03:42.079Z,20.11
2019-05-25T09:06:10.758Z,20.13
2019-05-25T09:08:39.461Z,20.16
2019-05-25T09:11:08.585Z,20.62
2019-05-25T09:13:37.438Z,20.68
2019-05-25T09:16:06.227Z,20.85
2019-05-25T09:18:35.129Z,20.53
2019-05-25T09:21:03.918Z,20.67
2019-05-25T09:23:32.597Z,20.92
2019-05-25T09:26:01.279Z,21.31
2019-05-25T09:28:30.075Z,21.23
2019-05-25T09:30:58.756Z,21.64
2019-05-25T09:33:27.545Z,21.80
2019-05-25T09:35:56.333Z,22.13
2019-05-25T09:38:25.129Z,21.80
2019-05-25T09:40:53.811Z,21.61
2019-05-25T09:43:23.621Z,21.75
2019-05-25T09:45:52.413Z,21.89
2019-05-25T09:48:21.101Z,22.09
2019-05-25T09:50:49.779Z,21.43
2019-05-25T09:53:18.591Z,21.84
2019-05-25T09:55:47.267Z,21.78
2019-05-25T09:58:16.048Z,22.66
2019-05-25T10:00:44.950Z,22.22
2019-05-25T10:03:15.799Z,22.08
2019-05-25T10:05:44.256Z,22.37
2019-05-25T10:08:14.581Z,22.36
2019-05-25T10:10:43.268Z,22.79
2019-05-25T10:13:12.060Z,22.93
2019-05-25T10:15:40.844Z,22.53
2019-05-25T10:18:09.567Z,22.35
2019-05-25T10:20:38.318Z,22.85
2019-05-25T10:23:07.120Z,23.25
2019-05-25T10:25:36.016Z,23.16
2019-05-25T10:28:04.705Z,23.10
2019-05-25T10:30:33.796Z,23.36
2019-05-25T10:33:02.414Z,23.17
2019-05-25T10:35:31.152Z,23.03
2019-05-25T10:37:59.799Z,22.83
2019-05-25T10:40:28.489Z,23.19
2019-05-25T10:42:57.149Z,22.84
2019-05-25T10:45:25.871Z,23.33
2019-05-25T10:47:54.542Z,23.57
2019-05-25T10:50:23.337Z,24.07
2019-05-25T10:52:51.986Z,23.56
2019-05-25T10:55:20.634Z,23.85
2019-05-25T10:57:49.315Z,23.29
2019-05-25T11:00:18.354Z,24.15
2019-05-25T11:02:47.024Z,24.57
2019-05-25T11:05:16.389Z,24.82
2019-05-25T11:07:45.060Z,24.64
2019-05-25T11:10:13.856Z,24.51
2019-05-25T11:12:42.511Z,23.91
2019-05-25T11:15:11.710Z,24.40
2019-05-25T11:17:40.335Z,24.62
2019-05-25T11:20:10.161Z,24.27
2019-05-25T11:22:38.761Z,24.38
2019-05-25T11:25:08.583Z,24.27
2019-05-25T11:27:37.282Z,24.33
2019-05-25T11:30:09.475Z,24.49
2019-05-25T11:32:37.186Z,24.62
2019-05-25T11:35:07.697Z,24.89
2019-05-25T11:37:36.416Z,24.60
2019-05-25T11:40:07.247Z,24.44
2019-05-25T11:42:35.932Z,24.34
2019-05-25T11:45:06.567Z,24.74
2019-05-25T11:47:35.193Z,24.75
2019-05-25T11:50:08.032Z,24.93
2019-05-25T11:52:36.721Z,24.43
2019-05-25T11:55:08.905Z,24.73
2019-05-25T11:57:37.584Z,25.04
2019-05-25T12:00:23.794Z,24.70
2019-05-25T12:02:39.964Z,24.51
2019-05-25T12:05:09.713Z,24.88
2019-05-25T12:07:38.361Z,25.14
2019-05-25T12:10:07.267Z,24.39
2019-05-25T12:12:36.057Z,24.07
2019-05-25T12:15:07.795Z,24.06
2019-05-25T12:17:36.619Z,23.99
2019-05-25T12:20:07.247Z,24.56
2019-05-25T12:22:36.005Z,25.24
2019-05-25T12:25:07.807Z,25.44
2019-05-25T12:27:36.760Z,25.48
2019-05-25T12:30:07.389Z,25.45
2019-05-25T12:32:36.082Z,25.31
2019-05-25T12:35:07.344Z,25.49
2019-05-25T12:37:36.150Z,25.42
2019-05-25T12:40:06.753Z,25.27
2019-05-25T12:42:35.532Z,25.05
2019-05-25T12:45:05.058Z,25.07
2019-05-25T12:47:34.032Z,24.76
2019-05-25T12:50:02.737Z,24.25
2019-05-25T12:52:31.610Z,24.26
2019-05-25T12:55:00.307Z,24.41
2019-05-25T12:57:29.100Z,24.61
2019-05-25T13:00:12.249Z,24.66
2019-05-25T13:02:31.048Z,24.69
2019-05-25T13:04:59.760Z,24.98
2019-05-25T13:07:28.852Z,24.54
2019-05-25T13:09:57.541Z,24.34
2019-05-25T13:12:26.324Z,24.35
2019-05-25T13:14:55.014Z,24.34
2019-05-25T13:17:23.797Z,24.41
2019-05-25T13:19:52.490Z,24.42
2019-05-25T13:22:21.280Z,24.36
2019-05-25T13:24:50.068Z,24.36
2019-05-25T13:27:18.750Z,24.65
2019-05-25T13:29:47.449Z,24.72
2019-05-25T13:32:16.226Z,24.92
2019-05-25T13:34:45.018Z,24.59
2019-05-25T13:37:14.016Z,24.56
2019-05-25T13:39:42.798Z,24.49
2019-05-25T13:42:11.584Z,24.55
2019-05-25T13:44:40.372Z,24.60
2019-05-25T13:47:09.068Z,24.68
2019-05-25T13:49:37.850Z,24.35
2019-05-25T13:52:06.543Z,24.54
2019-05-25T13:54:35.222Z,24.21
2019-05-25T13:57:03.909Z,23.95
2019-05-25T13:59:32.595Z,24.20
2019-05-25T14:02:01.384Z,24.17
2019-05-25T14:04:30.099Z,24.04
2019-05-25T14:06:58.861Z,23.89
2019-05-25T14:09:27.661Z,23.80
2019-05-25T14:11:56.440Z,23.84
2019-05-25T14:14:25.224Z,23.73
2019-05-25T14:16:53.916Z,23.55
2019-05-25T14:19:22.706Z,23.46
2019-05-25T14:21:51.593Z,23.25
2019-05-25T14:24:20.496Z,23.30
2019-05-25T14:26:50.735Z,23.08
2019-05-25T14:29:19.740Z,23.02
2019-05-25T14:31:48.489Z,23.14
2019-05-25T14:34:17.184Z,23.07
2019-05-25T14:36:45.861Z,22.81
2019-05-25T14:39:14.653Z,22.58
2019-05-25T14:41:45.594Z,22.55
2019-05-25T14:44:14.587Z,22.71
2019-05-25T14:46:43.586Z,22.69
2019-05-25T14:49:12.384Z,22.57
2019-05-25T14:51:41.152Z,22.28
2019-05-25T14:54:09.951Z,22.27
2019-05-25T14:56:38.734Z,22.31
2019-05-25T14:59:07.531Z,22.04
2019-05-25T15:01:37.809Z,22.09
2019-05-25T15:04:06.542Z,22.06
2019-05-25T15:06:35.156Z,22.14
2019-05-25T15:09:04.445Z,22.11
2019-05-25T15:11:33.315Z,22.38
2019-05-25T15:14:02.311Z,22.06
2019-05-25T15:16:33.148Z,22.07
2019-05-25T15:19:01.837Z,22.04
2019-05-25T15:21:30.850Z,22.07
2019-05-25T15:23:59.719Z,21.81
2019-05-25T15:26:28.529Z,21.58
2019-05-25T15:28:57.383Z,21.29
2019-05-25T15:31:26.082Z,21.23
2019-05-25T15:33:54.888Z,21.17
2019-05-25T15:36:23.873Z,21.19
2019-05-25T15:38:52.564Z,21.07
2019-05-25T15:41:21.240Z,20.81
2019-05-25T15:43:49.917Z,20.84
2019-05-25T15:46:18.609Z,20.33
2019-05-25T15:48:49.163Z,20.29
2019-05-25T15:51:18.564Z,20.18
2019-05-25T15:53:47.248Z,19.70
2019-05-25T15:56:16.023Z,19.34
2019-05-25T15:58:44.718Z,19.26
2019-05-25T16:01:13.419Z,19.08
2019-05-25T16:03:42.212Z,19.41
2019-05-25T16:06:10.879Z,19.08
2019-05-25T16:08:39.869Z,19.35
2019-05-25T16:11:08.547Z,19.32
2019-05-25T16:13:37.236Z,19.00
2019-05-25T16:16:06.018Z,18.80
2019-05-25T16:18:34.920Z,18.57
2019-05-25T16:21:03.595Z,18.58
2019-05-25T16:23:32.388Z,18.53
2019-05-25T16:26:01.200Z,18.58
2019-05-25T16:28:29.976Z,18.43
2019-05-25T16:30:58.751Z,18.30
2019-05-25T16:33:27.538Z,18.11
2019-05-25T16:35:58.059Z,17.93
2019-05-25T16:38:26.972Z,17.92
2019-05-25T16:40:56.077Z,17.86
2019-05-25T16:43:24.782Z,17.79
2019-05-25T16:45:53.432Z,17.80
2019-05-25T16:48:23.039Z,17.75
2019-05-25T16:50:51.855Z,17.68
2019-05-25T16:53:20.517Z,17.59
2019-05-25T16:55:49.205Z,17.43
2019-05-25T16:58:18.193Z,17.56
2019-05-25T17:00:46.890Z,17.48
2019-05-25T17:03:27.684Z,17.40
2019-05-25T17:05:46.310Z,17.41
2019-05-25T17:08:15.093Z,17.37
2019-05-25T17:10:45.835Z,17.36
2019-05-25T17:13:16.465Z,17.48
2019-05-25T17:15:45.970Z,17.59
2019-05-25T17:18:15.997Z,17.76
2019-05-25T17:20:44.799Z,17.44
2019-05-25T17:23:13.462Z,17.58
2019-05-25T17:25:43.374Z,17.61
2019-05-25T17:28:12.060Z,17.44
2019-05-25T17:30:43.069Z,17.44
2019-05-25T17:33:12.326Z,17.22
2019-05-25T17:35:41.214Z,17.20
2019-05-25T17:38:10.342Z,17.14
2019-05-25T17:40:39.649Z,17.09
2019-05-25T17:43:08.483Z,17.17
2019-05-25T17:45:38.807Z,17.05
2019-05-25T17:48:07.748Z,17.16
2019-05-25T17:50:38.040Z,17.33
2019-05-25T17:53:08.211Z,17.12
2019-05-25T17:55:36.960Z,17.29
2019-05-25T17:58:08.038Z,17.43
2019-05-25T18:00:46.089Z,17.44
2019-05-25T18:03:16.315Z,17.37
2019-05-25T18:05:45.394Z,17.49
2019-05-25T18:08:15.634Z,17.50
2019-05-25T18:10:53.274Z,17.31
2019-05-25T18:13:17.917Z,17.25
2019-05-25T18:15:46.598Z,17.04
2019-05-25T18:18:16.505Z,17.03
2019-05-25T18:20:45.367Z,17.10
2019-05-25T18:23:14.423Z,16.85
2019-05-25T18:25:45.027Z,16.87
2019-05-25T18:28:13.732Z,16.86
2019-05-25T18:30:42.529Z,16.94
2019-05-25T18:33:13.166Z,16.84
2019-05-25T18:35:42.147Z,16.85
2019-05-25T18:38:11.898Z,16.85
2019-05-25T18:40:42.004Z,16.92
2019-05-25T18:43:11.381Z,16.97
2019-05-25T18:45:40.682Z,16.91
2019-05-25T18:48:11.048Z,16.89
2019-05-25T18:50:40.324Z,16.80
2019-05-25T18:53:09.522Z,16.81
2019-05-25T18:55:39.058Z,16.74
2019-05-25T18:58:07.914Z,16.65
2019-05-25T19:00:40.402Z,16.69
2019-05-25T19:03:09.688Z,16.75
2019-05-25T19:05:39.106Z,16.71
2019-05-25T19:08:10.201Z,16.72
2019-05-25T19:10:40.973Z,16.73
2019-05-25T19:13:12.197Z,16.71
2019-05-25T19:15:41.085Z,16.65
2019-05-25T19:18:10.659Z,16.64
2019-05-25T19:20:39.572Z,16.64
2019-05-25T19:23:08.487Z,16.64
2019-05-25T19:25:37.809Z,16.60
2019-05-25T19:28:06.967Z,16.62
2019-05-25T19:30:39.738Z,16.58
2019-05-25T19:33:08.612Z,16.45
2019-05-25T19:35:41.458Z,16.42
2019-05-25T19:38:10.441Z,16.43
2019-05-25T19:40:39.364Z,16.53
2019-05-25T19:43:09.752Z,16.46
2019-05-25T19:45:39.859Z,16.46
2019-05-25T19:48:12.906Z,16.54
2019-05-25T19:50:42.073Z,16.59
2019-05-25T19:53:10.707Z,16.48
2019-05-25T19:55:39.451Z,16.50
2019-05-25T19:58:09.068Z,16.49
2019-05-25T20:00:37.921Z,16.53
2019-05-25T20:03:08.002Z,16.43
2019-05-25T20:05:37.043Z,16.34
2019-05-25T20:08:05.826Z,16.30
2019-05-25T20:10:34.566Z,16.33
2019-05-25T20:13:03.285Z,16.46
2019-05-25T20:15:32.087Z,16.46
2019-05-25T20:18:01.601Z,16.38
2019-05-25T20:20:30.373Z,16.38
2019-05-25T20:22:59.077Z,16.26
2019-05-25T20:25:27.974Z,16.20
2019-05-25T20:27:56.659Z,16.28
2019-05-25T20:30:25.324Z,16.30
2019-05-25T20:32:54.117Z,16.19
2019-05-25T20:35:32.265Z,16.22
2019-05-25T20:37:53.250Z,16.16
2019-05-25T20:40:22.011Z,16.10
2019-05-25T20:42:50.704Z,16.14
2019-05-25T20:45:19.388Z,16.07
2019-05-25T20:47:48.352Z,16.07
2019-05-25T20:50:17.384Z,16.10
2019-05-25T20:52:46.223Z,16.06
2019-05-25T20:55:15.259Z,16.03
2019-05-25T20:57:44.101Z,15.96
2019-05-25T21:00:13.654Z,16.07
2019-05-25T21:02:42.546Z,16.07
2019-05-25T21:05:11.356Z,15.92
2019-05-25T21:07:40.123Z,16.01
2019-05-25T21:10:09.229Z,15.98
2019-05-25T21:12:37.840Z,15.90
2019-05-25T21:15:08.233Z,15.89
2019-05-25T21:17:36.952Z,16.00
2019-05-25T21:20:06.463Z,15.78
2019-05-25T21:22:36.854Z,15.80
2019-05-25T21:25:08.437Z,15.68
2019-05-25T21:27:37.106Z,15.58
2019-05-25T21:30:08.119Z,15.64
2019-05-25T21:32:36.848Z,15.56
2019-05-25T21:35:09.078Z,15.65
2019-05-25T21:37:37.778Z,15.63
2019-05-25T21:40:10.053Z,15.61
2019-05-25T21:42:38.841Z,15.62
2019-05-25T21:45:08.265Z,15.65
2019-05-25T21:47:37.026Z,15.40
2019-05-25T21:50:07.268Z,15.30
2019-05-25T21:52:36.340Z,15.20
2019-05-25T21:55:05.789Z,15.30
2019-05-25T21:57:34.543Z,15.33
2019-05-25T22:00:05.990Z,15.20
2019-05-25T22:02:34.989Z,15.24
2019-05-25T22:05:04.805Z,15.09
2019-05-25T22:07:33.585Z,15.18
2019-05-25T22:10:02.382Z,15.30
2019-05-25T22:12:31.164Z,15.17
2019-05-25T22:15:00.052Z,15.15
2019-05-25T22:17:28.752Z,14.97
2019-05-25T22:19:58.351Z,14.71
2019-05-25T22:22:28.942Z,14.88
2019-05-25T22:24:57.679Z,14.86
2019-05-25T22:27:27.897Z,14.73
2019-05-25T22:29:56.678Z,14.72
2019-05-25T22:32:26.192Z,14.86
2019-05-25T22:34:55.284Z,14.83
2019-05-25T22:37:24.067Z,14.85
2019-05-25T22:39:52.760Z,14.87
2019-05-25T22:42:21.547Z,14.83
2019-05-25T22:44:50.229Z,14.50
2019-05-25T22:47:20.962Z,14.39
2019-05-25T22:49:49.663Z,14.44
2019-05-25T22:52:18.478Z,14.51
2019-05-25T22:54:47.322Z,14.65
2019-05-25T22:57:16.130Z,14.68
2019-05-25T22:59:44.806Z,14.60
2019-05-25T23:02:13.590Z,14.65
2019-05-25T23:04:42.500Z,14.57
2019-05-25T23:07:11.477Z,14.48
2019-05-25T23:09:40.178Z,14.37
2019-05-25T23:12:08.854Z,14.59
2019-05-25T23:14:37.566Z,14.48
2019-05-25T23:17:06.724Z,14.45
2019-05-25T23:19:37.420Z,14.38
2019-05-25T23:22:06.159Z,14.37
2019-05-25T23:24:34.846Z,14.25
2019-05-25T23:27:03.518Z,14.29
2019-05-25T23:29:32.230Z,14.16
2019-05-25T23:32:01.008Z,14.23
2019-05-25T23:34:29.706Z,14.17
2019-05-25T23:37:13.696Z,14.12
2019-05-25T23:39:28.909Z,14.05
2019-05-25T23:41:57.699Z,13.77
2019-05-25T23:44:26.393Z,14.01
2019-05-25T23:46:55.487Z,13.93
2019-05-25T23:49:24.445Z,13.74
2019-05-25T23:51:53.158Z,13.75
2019-05-25T23:54:21.868Z,13.57
2019-05-25T23:56:50.490Z,13.69
2019-05-25T23:59:19.225Z,13.49
